sensor_id;sensor_type;location;lat;lon;timestamp;P1;durP1;ratioP1;P2;durP2;ratioP2
64197;SDS011;50512;53.666;9.700;2022-10-13T00:02:08;10.90;;;4.75;;
64197;SDS011;50512;53.666;9.700;2022-10-13T00:04:34;12.25;;;4.72;;
64197;SDS011;50512;53.666;9.700;2022-10-13T00:06:59;7.45;;;4.00;;
64197;SDS011;50512;53.666;9.700;2022-10-13T00:09:25;11.57;;;4.38;;
64197;SDS011;50512;53.666;9.700;2022-10-13T00:11:50;7.70;;;4.13;;
64197;SDS011;50512;53.666;9.700;2022-10-13T00:14:16;10.18;;;4.20;;
64197;SDS011;50512;53.666;9.700;2022-10-13T00:16:42;6.95;;;3.85;;
64197;SDS011;50512;53.666;9.700;2022-10-13T00:19:08;7.47;;;4.32;;
64197;SDS011;50512;53.666;9.700;2022-10-13T00:21:33;9.15;;;4.38;;
64197;SDS011;50512;53.666;9.700;2022-10-13T00:23:59;10.93;;;4.28;;
64197;SDS011;50512;53.666;9.700;2022-10-13T00:26:24;8.82;;;4.15;;
64197;SDS011;50512;53.666;9.700;2022-10-13T00:28:50;12.38;;;4.80;;
64197;SDS011;50512;53.666;9.700;2022-10-13T00:31:16;8.07;;;4.07;;
64197;SDS011;50512;53.666;9.700;2022-10-13T00:33:44;8.35;;;4.55;;
64197;SDS011;50512;53.666;9.700;2022-10-13T00:36:10;9.82;;;4.47;;
64197;SDS011;50512;53.666;9.700;2022-10-13T00:38:35;12.00;;;4.30;;
64197;SDS011;50512;53.666;9.700;2022-10-13T00:41:01;9.10;;;3.90;;
64197;SDS011;50512;53.666;9.700;2022-10-13T00:43:29;12.05;;;4.05;;
64197;SDS011;50512;53.666;9.700;2022-10-13T00:46:13;14.70;;;4.45;;
64197;SDS011;50512;53.666;9.700;2022-10-13T00:48:39;7.03;;;4.03;;
64197;SDS011;50512;53.666;9.700;2022-10-13T00:51:07;8.57;;;4.45;;
64197;SDS011;50512;53.666;9.700;2022-10-13T00:53:34;7.90;;;4.65;;
64197;SDS011;50512;53.666;9.700;2022-10-13T00:56:02;7.32;;;4.00;;
64197;SDS011;50512;53.666;9.700;2022-10-13T00:58:29;9.93;;;4.20;;
64197;SDS011;50512;53.666;9.700;2022-10-13T01:00:55;10.73;;;4.57;;
64197;SDS011;50512;53.666;9.700;2022-10-13T01:03:21;7.53;;;4.10;;
64197;SDS011;50512;53.666;9.700;2022-10-13T01:05:47;8.20;;;4.25;;
64197;SDS011;50512;53.666;9.700;2022-10-13T01:08:16;10.30;;;4.20;;
64197;SDS011;50512;53.666;9.700;2022-10-13T01:10:44;7.13;;;3.78;;
64197;SDS011;50512;53.666;9.700;2022-10-13T01:13:20;9.38;;;3.90;;
64197;SDS011;50512;53.666;9.700;2022-10-13T01:15:52;11.70;;;3.75;;
64197;SDS011;50512;53.666;9.700;2022-10-13T01:18:25;5.35;;;3.65;;
64197;SDS011;50512;53.666;9.700;2022-10-13T01:27:07;7.30;;;3.92;;
64197;SDS011;50512;53.666;9.700;2022-10-13T01:29:51;10.75;;;4.32;;
64197;SDS011;50512;53.666;9.700;2022-10-13T01:32:30;8.85;;;4.22;;
64197;SDS011;50512;53.666;9.700;2022-10-13T01:35:03;9.70;;;4.20;;
64197;SDS011;50512;53.666;9.700;2022-10-13T01:37:33;16.83;;;5.55;;
64197;SDS011;50512;53.666;9.700;2022-10-13T01:40:09;9.38;;;4.82;;
64197;SDS011;50512;53.666;9.700;2022-10-13T01:42:38;20.88;;;5.25;;
64197;SDS011;50512;53.666;9.700;2022-10-13T01:45:11;10.35;;;4.63;;
64197;SDS011;50512;53.666;9.700;2022-10-13T01:47:41;11.20;;;4.60;;
64197;SDS011;50512;53.666;9.700;2022-10-13T01:50:08;14.00;;;5.45;;
64197;SDS011;50512;53.666;9.700;2022-10-13T01:52:36;12.60;;;4.82;;
64197;SDS011;50512;53.666;9.700;2022-10-13T01:55:06;10.13;;;5.15;;
64197;SDS011;50512;53.666;9.700;2022-10-13T01:57:33;9.75;;;4.30;;
64197;SDS011;50512;53.666;9.700;2022-10-13T02:00:01;9.18;;;4.32;;
64197;SDS011;50512;53.666;9.700;2022-10-13T02:02:51;13.48;;;4.60;;
64197;SDS011;50512;53.666;9.700;2022-10-13T02:05:28;8.45;;;4.57;;
64197;SDS011;50512;53.666;9.700;2022-10-13T02:08:03;8.25;;;4.15;;
64197;SDS011;50512;53.666;9.700;2022-10-13T02:10:33;9.50;;;4.85;;
64197;SDS011;50512;53.666;9.700;2022-10-13T02:13:05;9.50;;;5.22;;
64197;SDS011;50512;53.666;9.700;2022-10-13T02:15:35;15.20;;;5.18;;
64197;SDS011;50512;53.666;9.700;2022-10-13T02:18:04;8.77;;;4.93;;
64197;SDS011;50512;53.666;9.700;2022-10-13T02:20:32;12.38;;;4.60;;
64197;SDS011;50512;53.666;9.700;2022-10-13T02:22:59;18.95;;;4.63;;
64197;SDS011;50512;53.666;9.700;2022-10-13T02:25:28;8.77;;;4.50;;
64197;SDS011;50512;53.666;9.700;2022-10-13T02:27:54;14.18;;;5.10;;
64197;SDS011;50512;53.666;9.700;2022-10-13T02:30:23;9.07;;;4.68;;
64197;SDS011;50512;53.666;9.700;2022-10-13T02:32:52;10.32;;;4.35;;
64197;SDS011;50512;53.666;9.700;2022-10-13T02:35:17;14.35;;;5.63;;
64197;SDS011;50512;53.666;9.700;2022-10-13T02:37:43;12.45;;;5.18;;
64197;SDS011;50512;53.666;9.700;2022-10-13T02:40:09;14.18;;;4.82;;
64197;SDS011;50512;53.666;9.700;2022-10-13T02:42:35;12.75;;;4.82;;
64197;SDS011;50512;53.666;9.700;2022-10-13T02:45:00;10.73;;;5.38;;
64197;SDS011;50512;53.666;9.700;2022-10-13T02:47:26;14.75;;;5.97;;
64197;SDS011;50512;53.666;9.700;2022-10-13T02:49:52;15.52;;;5.35;;
64197;SDS011;50512;53.666;9.700;2022-10-13T02:52:18;11.25;;;5.63;;
64197;SDS011;50512;53.666;9.700;2022-10-13T02:54:43;12.00;;;5.25;;
64197;SDS011;50512;53.666;9.700;2022-10-13T02:57:09;11.70;;;5.25;;
64197;SDS011;50512;53.666;9.700;2022-10-13T02:59:34;10.15;;;5.43;;
64197;SDS011;50512;53.666;9.700;2022-10-13T03:02:00;11.43;;;6.05;;
64197;SDS011;50512;53.666;9.700;2022-10-13T03:04:25;14.10;;;5.45;;
64197;SDS011;50512;53.666;9.700;2022-10-13T03:06:52;13.88;;;5.10;;
64197;SDS011;50512;53.666;9.700;2022-10-13T03:09:17;10.80;;;4.78;;
64197;SDS011;50512;53.666;9.700;2022-10-13T03:11:43;11.43;;;5.03;;
64197;SDS011;50512;53.666;9.700;2022-10-13T03:14:08;11.40;;;5.15;;
64197;SDS011;50512;53.666;9.700;2022-10-13T03:16:34;11.02;;;5.30;;
64197;SDS011;50512;53.666;9.700;2022-10-13T03:18:59;12.95;;;5.20;;
64197;SDS011;50512;53.666;9.700;2022-10-13T03:21:25;12.77;;;5.93;;
64197;SDS011;50512;53.666;9.700;2022-10-13T03:23:52;13.70;;;5.47;;
64197;SDS011;50512;53.666;9.700;2022-10-13T03:26:17;10.18;;;5.20;;
64197;SDS011;50512;53.666;9.700;2022-10-13T03:28:42;10.85;;;5.57;;
64197;SDS011;50512;53.666;9.700;2022-10-13T03:31:12;16.67;;;5.90;;
64197;SDS011;50512;53.666;9.700;2022-10-13T03:33:38;11.52;;;5.65;;
64197;SDS011;50512;53.666;9.700;2022-10-13T03:36:04;12.85;;;5.90;;
64197;SDS011;50512;53.666;9.700;2022-10-13T03:38:31;13.30;;;5.82;;
64197;SDS011;50512;53.666;9.700;2022-10-13T03:41:04;12.45;;;5.97;;
64197;SDS011;50512;53.666;9.700;2022-10-13T03:43:30;10.70;;;5.35;;
64197;SDS011;50512;53.666;9.700;2022-10-13T03:45:55;14.75;;;5.25;;
64197;SDS011;50512;53.666;9.700;2022-10-13T03:48:21;13.30;;;6.03;;
64197;SDS011;50512;53.666;9.700;2022-10-13T03:50:46;13.95;;;5.40;;
64197;SDS011;50512;53.666;9.700;2022-10-13T03:53:12;12.95;;;5.60;;
64197;SDS011;50512;53.666;9.700;2022-10-13T03:55:37;15.65;;;5.28;;
64197;SDS011;50512;53.666;9.700;2022-10-13T03:58:04;12.35;;;5.93;;
64197;SDS011;50512;53.666;9.700;2022-10-13T04:00:29;16.42;;;5.93;;
64197;SDS011;50512;53.666;9.700;2022-10-13T04:02:55;12.00;;;5.97;;
64197;SDS011;50512;53.666;9.700;2022-10-13T04:05:20;14.82;;;6.10;;
64197;SDS011;50512;53.666;9.700;2022-10-13T04:07:46;11.50;;;5.95;;
64197;SDS011;50512;53.666;9.700;2022-10-13T04:10:11;12.98;;;5.93;;
64197;SDS011;50512;53.666;9.700;2022-10-13T04:12:37;15.00;;;5.95;;
64197;SDS011;50512;53.666;9.700;2022-10-13T04:15:04;16.45;;;6.82;;
64197;SDS011;50512;53.666;9.700;2022-10-13T04:17:30;10.80;;;5.97;;
64197;SDS011;50512;53.666;9.700;2022-10-13T04:19:56;13.25;;;5.88;;
64197;SDS011;50512;53.666;9.700;2022-10-13T04:22:21;12.15;;;6.32;;
64197;SDS011;50512;53.666;9.700;2022-10-13T04:24:47;16.58;;;6.80;;
64197;SDS011;50512;53.666;9.700;2022-10-13T04:27:12;15.88;;;6.65;;
64197;SDS011;50512;53.666;9.700;2022-10-13T04:29:37;14.93;;;6.60;;
64197;SDS011;50512;53.666;9.700;2022-10-13T04:32:04;14.77;;;7.25;;
64197;SDS011;50512;53.666;9.700;2022-10-13T04:34:30;12.57;;;6.50;;
64197;SDS011;50512;53.666;9.700;2022-10-13T04:36:55;12.75;;;6.78;;
64197;SDS011;50512;53.666;9.700;2022-10-13T04:39:21;16.65;;;6.75;;
64197;SDS011;50512;53.666;9.700;2022-10-13T04:41:46;13.07;;;6.63;;
64197;SDS011;50512;53.666;9.700;2022-10-13T04:44:11;15.63;;;7.13;;
64197;SDS011;50512;53.666;9.700;2022-10-13T04:46:37;12.55;;;6.93;;
64197;SDS011;50512;53.666;9.700;2022-10-13T04:49:04;12.50;;;6.63;;
64197;SDS011;50512;53.666;9.700;2022-10-13T04:51:30;11.68;;;6.57;;
64197;SDS011;50512;53.666;9.700;2022-10-13T04:53:56;13.18;;;6.95;;
64197;SDS011;50512;53.666;9.700;2022-10-13T04:56:23;19.83;;;7.53;;
64197;SDS011;50512;53.666;9.700;2022-10-13T04:58:49;18.48;;;6.78;;
64197;SDS011;50512;53.666;9.700;2022-10-13T05:01:16;17.00;;;7.00;;
64197;SDS011;50512;53.666;9.700;2022-10-13T05:03:43;20.63;;;7.25;;
64197;SDS011;50512;53.666;9.700;2022-10-13T05:06:13;16.02;;;6.65;;
64197;SDS011;50512;53.666;9.700;2022-10-13T05:08:39;13.68;;;6.82;;
64197;SDS011;50512;53.666;9.700;2022-10-13T05:11:05;19.20;;;7.50;;
64197;SDS011;50512;53.666;9.700;2022-10-13T05:13:30;18.83;;;7.70;;
64197;SDS011;50512;53.666;9.700;2022-10-13T05:15:56;16.25;;;7.20;;
64197;SDS011;50512;53.666;9.700;2022-10-13T05:18:21;16.45;;;7.25;;
64197;SDS011;50512;53.666;9.700;2022-10-13T05:20:48;16.05;;;6.75;;
64197;SDS011;50512;53.666;9.700;2022-10-13T05:23:15;18.25;;;7.05;;
64197;SDS011;50512;53.666;9.700;2022-10-13T05:25:41;14.48;;;7.22;;
64197;SDS011;50512;53.666;9.700;2022-10-13T05:28:07;18.63;;;8.25;;
64197;SDS011;50512;53.666;9.700;2022-10-13T05:30:32;18.80;;;6.88;;
64197;SDS011;50512;53.666;9.700;2022-10-13T05:32:58;15.00;;;6.90;;
64197;SDS011;50512;53.666;9.700;2022-10-13T05:35:23;15.98;;;7.90;;
64197;SDS011;50512;53.666;9.700;2022-10-13T05:37:49;18.17;;;8.30;;
64197;SDS011;50512;53.666;9.700;2022-10-13T05:40:16;17.10;;;7.88;;
64197;SDS011;50512;53.666;9.700;2022-10-13T05:42:41;16.10;;;7.97;;
64197;SDS011;50512;53.666;9.700;2022-10-13T05:45:07;20.65;;;8.30;;
64197;SDS011;50512;53.666;9.700;2022-10-13T05:47:34;16.42;;;7.90;;
64197;SDS011;50512;53.666;9.700;2022-10-13T05:49:59;15.15;;;7.65;;
64197;SDS011;50512;53.666;9.700;2022-10-13T05:52:25;19.45;;;7.78;;
64197;SDS011;50512;53.666;9.700;2022-10-13T05:54:52;16.05;;;8.45;;
64197;SDS011;50512;53.666;9.700;2022-10-13T05:57:22;13.57;;;6.88;;
64197;SDS011;50512;53.666;9.700;2022-10-13T05:59:50;17.73;;;7.65;;
64197;SDS011;50512;53.666;9.700;2022-10-13T06:02:19;16.35;;;7.72;;
64197;SDS011;50512;53.666;9.700;2022-10-13T06:04:49;15.63;;;7.13;;
64197;SDS011;50512;53.666;9.700;2022-10-13T06:07:17;19.52;;;8.00;;
64197;SDS011;50512;53.666;9.700;2022-10-13T06:09:43;22.48;;;8.60;;
64197;SDS011;50512;53.666;9.700;2022-10-13T06:12:08;15.35;;;7.72;;
64197;SDS011;50512;53.666;9.700;2022-10-13T06:14:36;15.35;;;8.02;;
64197;SDS011;50512;53.666;9.700;2022-10-13T06:17:01;19.60;;;8.18;;
64197;SDS011;50512;53.666;9.700;2022-10-13T06:19:27;18.90;;;8.32;;
64197;SDS011;50512;53.666;9.700;2022-10-13T06:21:52;21.20;;;8.10;;
64197;SDS011;50512;53.666;9.700;2022-10-13T06:24:18;19.05;;;8.52;;
64197;SDS011;50512;53.666;9.700;2022-10-13T06:26:43;18.10;;;7.93;;
64197;SDS011;50512;53.666;9.700;2022-10-13T06:29:09;15.40;;;7.72;;
64197;SDS011;50512;53.666;9.700;2022-10-13T06:31:36;23.98;;;9.35;;
64197;SDS011;50512;53.666;9.700;2022-10-13T06:34:01;19.27;;;8.20;;
64197;SDS011;50512;53.666;9.700;2022-10-13T06:36:27;20.92;;;8.30;;
64197;SDS011;50512;53.666;9.700;2022-10-13T06:38:52;18.85;;;8.32;;
64197;SDS011;50512;53.666;9.700;2022-10-13T06:41:18;28.85;;;9.02;;
64197;SDS011;50512;53.666;9.700;2022-10-13T06:43:44;21.50;;;8.43;;
64197;SDS011;50512;53.666;9.700;2022-10-13T06:46:09;18.70;;;8.45;;
64197;SDS011;50512;53.666;9.700;2022-10-13T06:48:37;19.08;;;8.82;;
64197;SDS011;50512;53.666;9.700;2022-10-13T06:51:04;18.13;;;8.38;;
64197;SDS011;50512;53.666;9.700;2022-10-13T06:53:31;19.70;;;8.70;;
64197;SDS011;50512;53.666;9.700;2022-10-13T06:55:57;20.77;;;10.00;;
64197;SDS011;50512;53.666;9.700;2022-10-13T06:58:23;18.25;;;8.73;;
64197;SDS011;50512;53.666;9.700;2022-10-13T07:00:49;20.25;;;9.05;;
64197;SDS011;50512;53.666;9.700;2022-10-13T07:03:14;18.48;;;8.73;;
64197;SDS011;50512;53.666;9.700;2022-10-13T07:05:41;22.52;;;9.50;;
64197;SDS011;50512;53.666;9.700;2022-10-13T07:08:06;20.50;;;9.20;;
64197;SDS011;50512;53.666;9.700;2022-10-13T07:10:32;20.52;;;9.70;;
64197;SDS011;50512;53.666;9.700;2022-10-13T07:12:57;19.75;;;9.10;;
64197;SDS011;50512;53.666;9.700;2022-10-13T07:15:23;18.77;;;8.73;;
64197;SDS011;50512;53.666;9.700;2022-10-13T07:17:48;17.90;;;8.90;;
64197;SDS011;50512;53.666;9.700;2022-10-13T07:20:14;17.60;;;8.57;;
64197;SDS011;50512;53.666;9.700;2022-10-13T07:22:41;19.50;;;9.35;;
64197;SDS011;50512;53.666;9.700;2022-10-13T07:25:07;22.30;;;10.68;;
64197;SDS011;50512;53.666;9.700;2022-10-13T07:27:33;21.00;;;9.15;;
64197;SDS011;50512;53.666;9.700;2022-10-13T07:29:58;19.30;;;8.98;;
64197;SDS011;50512;53.666;9.700;2022-10-13T07:32:24;18.40;;;8.77;;
64197;SDS011;50512;53.666;9.700;2022-10-13T07:34:50;20.98;;;8.70;;
64197;SDS011;50512;53.666;9.700;2022-10-13T07:37:16;23.38;;;9.60;;
64197;SDS011;50512;53.666;9.700;2022-10-13T07:39:43;17.23;;;9.05;;
64197;SDS011;50512;53.666;9.700;2022-10-13T07:42:08;19.65;;;9.48;;
64197;SDS011;50512;53.666;9.700;2022-10-13T07:44:34;19.50;;;8.85;;
64197;SDS011;50512;53.666;9.700;2022-10-13T07:46:59;18.50;;;8.43;;
64197;SDS011;50512;53.666;9.700;2022-10-13T07:49:25;22.27;;;9.60;;
64197;SDS011;50512;53.666;9.700;2022-10-13T07:51:50;28.55;;;9.65;;
64197;SDS011;50512;53.666;9.700;2022-10-13T07:54:16;23.90;;;9.70;;
64197;SDS011;50512;53.666;9.700;2022-10-13T07:56:42;25.55;;;10.35;;
64197;SDS011;50512;53.666;9.700;2022-10-13T07:59:08;21.02;;;9.85;;
64197;SDS011;50512;53.666;9.700;2022-10-13T08:01:33;16.10;;;9.05;;
64197;SDS011;50512;53.666;9.700;2022-10-13T08:03:59;17.45;;;9.05;;
64197;SDS011;50512;53.666;9.700;2022-10-13T08:06:24;20.30;;;9.52;;
64197;SDS011;50512;53.666;9.700;2022-10-13T08:08:50;21.60;;;9.35;;
64197;SDS011;50512;53.666;9.700;2022-10-13T08:11:16;14.77;;;8.57;;
64197;SDS011;50512;53.666;9.700;2022-10-13T08:13:46;23.17;;;9.50;;
64197;SDS011;50512;53.666;9.700;2022-10-13T08:16:12;20.25;;;9.90;;
64197;SDS011;50512;53.666;9.700;2022-10-13T08:18:37;20.15;;;9.73;;
64197;SDS011;50512;53.666;9.700;2022-10-13T08:21:03;20.58;;;9.98;;
64197;SDS011;50512;53.666;9.700;2022-10-13T08:23:29;25.63;;;9.80;;
64197;SDS011;50512;53.666;9.700;2022-10-13T08:25:54;22.23;;;9.85;;
64197;SDS011;50512;53.666;9.700;2022-10-13T08:28:20;25.30;;;10.23;;
64197;SDS011;50512;53.666;9.700;2022-10-13T08:30:49;22.25;;;10.00;;
64197;SDS011;50512;53.666;9.700;2022-10-13T08:33:14;24.55;;;10.57;;
64197;SDS011;50512;53.666;9.700;2022-10-13T08:35:40;23.10;;;10.60;;
64197;SDS011;50512;53.666;9.700;2022-10-13T08:38:05;24.33;;;10.57;;
64197;SDS011;50512;53.666;9.700;2022-10-13T08:40:31;28.05;;;11.63;;
64197;SDS011;50512;53.666;9.700;2022-10-13T08:42:56;27.70;;;10.77;;
64197;SDS011;50512;53.666;9.700;2022-10-13T08:45:22;21.55;;;9.80;;
64197;SDS011;50512;53.666;9.700;2022-10-13T08:47:53;21.80;;;10.45;;
64197;SDS011;50512;53.666;9.700;2022-10-13T08:50:23;22.38;;;9.70;;
64197;SDS011;50512;53.666;9.700;2022-10-13T08:52:52;23.63;;;10.25;;
64197;SDS011;50512;53.666;9.700;2022-10-13T08:55:20;29.45;;;12.52;;
64197;SDS011;50512;53.666;9.700;2022-10-13T08:57:49;29.27;;;10.98;;
64197;SDS011;50512;53.666;9.700;2022-10-13T09:00:15;24.80;;;9.00;;
64197;SDS011;50512;53.666;9.700;2022-10-13T09:02:41;23.50;;;11.00;;
64197;SDS011;50512;53.666;9.700;2022-10-13T09:05:10;23.42;;;10.27;;
64197;SDS011;50512;53.666;9.700;2022-10-13T09:07:37;22.92;;;11.73;;
64197;SDS011;50512;53.666;9.700;2022-10-13T09:10:05;24.52;;;10.93;;
64197;SDS011;50512;53.666;9.700;2022-10-13T09:12:31;20.75;;;10.75;;
64197;SDS011;50512;53.666;9.700;2022-10-13T09:14:57;23.55;;;11.77;;
64197;SDS011;50512;53.666;9.700;2022-10-13T09:17:24;21.95;;;9.60;;
64197;SDS011;50512;53.666;9.700;2022-10-13T09:19:56;24.58;;;11.98;;
64197;SDS011;50512;53.666;9.700;2022-10-13T09:22:27;25.75;;;11.52;;
64197;SDS011;50512;53.666;9.700;2022-10-13T09:25:09;25.83;;;10.98;;
64197;SDS011;50512;53.666;9.700;2022-10-13T09:27:42;18.67;;;10.70;;
64197;SDS011;50512;53.666;9.700;2022-10-13T09:36:04;24.83;;;11.23;;
64197;SDS011;50512;53.666;9.700;2022-10-13T09:38:33;22.17;;;10.48;;
64197;SDS011;50512;53.666;9.700;2022-10-13T09:40:59;27.50;;;12.43;;
64197;SDS011;50512;53.666;9.700;2022-10-13T09:43:28;24.23;;;10.93;;
64197;SDS011;50512;53.666;9.700;2022-10-13T09:45:55;27.98;;;13.05;;
64197;SDS011;50512;53.666;9.700;2022-10-13T09:48:22;30.73;;;12.70;;
64197;SDS011;50512;53.666;9.700;2022-10-13T09:50:51;23.42;;;11.80;;
64197;SDS011;50512;53.666;9.700;2022-10-13T09:53:20;29.08;;;13.27;;
64197;SDS011;50512;53.666;9.700;2022-10-13T09:55:52;26.48;;;11.93;;
64197;SDS011;50512;53.666;9.700;2022-10-13T09:58:32;27.80;;;12.10;;
64197;SDS011;50512;53.666;9.700;2022-10-13T10:01:00;26.98;;;12.35;;
64197;SDS011;50512;53.666;9.700;2022-10-13T10:03:26;24.92;;;12.32;;
64197;SDS011;50512;53.666;9.700;2022-10-13T10:05:56;29.15;;;12.55;;
64197;SDS011;50512;53.666;9.700;2022-10-13T10:08:25;23.08;;;11.93;;
64197;SDS011;50512;53.666;9.700;2022-10-13T10:10:56;26.80;;;12.77;;
64197;SDS011;50512;53.666;9.700;2022-10-13T10:13:25;23.85;;;12.35;;
64197;SDS011;50512;53.666;9.700;2022-10-13T10:15:52;23.42;;;11.80;;
64197;SDS011;50512;53.666;9.700;2022-10-13T10:18:25;28.63;;;11.35;;
64197;SDS011;50512;53.666;9.700;2022-10-13T10:21:01;25.83;;;11.52;;
64197;SDS011;50512;53.666;9.700;2022-10-13T10:23:36;29.27;;;12.15;;
64197;SDS011;50512;53.666;9.700;2022-10-13T10:26:10;24.40;;;12.82;;
64197;SDS011;50512;53.666;9.700;2022-10-13T10:31:42;27.40;;;11.85;;
64197;SDS011;50512;53.666;9.700;2022-10-13T10:34:23;23.73;;;11.07;;
64197;SDS011;50512;53.666;9.700;2022-10-13T10:36:56;23.52;;;12.25;;
64197;SDS011;50512;53.666;9.700;2022-10-13T10:39:37;29.55;;;12.95;;
64197;SDS011;50512;53.666;9.700;2022-10-13T10:42:17;22.13;;;11.95;;
64197;SDS011;50512;53.666;9.700;2022-10-13T10:45:08;26.98;;;12.20;;
64197;SDS011;50512;53.666;9.700;2022-10-13T10:47:41;22.97;;;10.77;;
64197;SDS011;50512;53.666;9.700;2022-10-13T10:50:12;29.50;;;12.55;;
64197;SDS011;50512;53.666;9.700;2022-10-13T10:52:41;24.73;;;10.30;;
64197;SDS011;50512;53.666;9.700;2022-10-13T10:55:16;24.08;;;12.10;;
64197;SDS011;50512;53.666;9.700;2022-10-13T10:57:51;24.08;;;11.90;;
64197;SDS011;50512;53.666;9.700;2022-10-13T11:00:28;23.40;;;11.35;;
64197;SDS011;50512;53.666;9.700;2022-10-13T11:02:59;26.85;;;12.27;;
64197;SDS011;50512;53.666;9.700;2022-10-13T11:08:26;25.52;;;10.80;;
64197;SDS011;50512;53.666;9.700;2022-10-13T11:13:53;21.75;;;11.52;;
64197;SDS011;50512;53.666;9.700;2022-10-13T11:16:25;24.92;;;11.43;;
64197;SDS011;50512;53.666;9.700;2022-10-13T11:21:42;25.20;;;11.60;;
64197;SDS011;50512;53.666;9.700;2022-10-13T11:24:46;23.52;;;12.30;;
64197;SDS011;50512;53.666;9.700;2022-10-13T11:27:26;27.63;;;11.27;;
64197;SDS011;50512;53.666;9.700;2022-10-13T11:30:01;22.98;;;10.02;;
64197;SDS011;50512;53.666;9.700;2022-10-13T11:32:43;25.73;;;11.48;;
64197;SDS011;50512;53.666;9.700;2022-10-13T11:35:17;24.52;;;11.40;;
64197;SDS011;50512;53.666;9.700;2022-10-13T11:37:48;27.17;;;12.88;;
64197;SDS011;50512;53.666;9.700;2022-10-13T11:40:22;23.50;;;11.10;;
64197;SDS011;50512;53.666;9.700;2022-10-13T11:54:57;22.30;;;11.10;;
64197;SDS011;50512;53.666;9.700;2022-10-13T11:57:29;26.63;;;12.95;;
64197;SDS011;50512;53.666;9.700;2022-10-13T11:59:55;25.73;;;11.60;;
64197;SDS011;50512;53.666;9.700;2022-10-13T12:02:22;27.30;;;11.95;;
64197;SDS011;50512;53.666;9.700;2022-10-13T12:04:59;25.85;;;11.82;;
64197;SDS011;50512;53.666;9.700;2022-10-13T12:07:31;25.42;;;12.77;;
64197;SDS011;50512;53.666;9.700;2022-10-13T12:10:00;26.10;;;11.52;;
64197;SDS011;50512;53.666;9.700;2022-10-13T12:12:28;23.10;;;11.70;;
64197;SDS011;50512;53.666;9.700;2022-10-13T12:14:54;25.92;;;11.98;;
64197;SDS011;50512;53.666;9.700;2022-10-13T12:17:21;37.88;;;13.48;;
64197;SDS011;50512;53.666;9.700;2022-10-13T12:19:51;24.17;;;11.80;;
64197;SDS011;50512;53.666;9.700;2022-10-13T12:22:17;22.08;;;11.80;;
64197;SDS011;50512;53.666;9.700;2022-10-13T12:24:45;24.40;;;11.55;;
64197;SDS011;50512;53.666;9.700;2022-10-13T12:27:22;24.38;;;11.07;;
64197;SDS011;50512;53.666;9.700;2022-10-13T12:29:47;29.60;;;12.65;;
64197;SDS011;50512;53.666;9.700;2022-10-13T12:32:17;23.63;;;11.55;;
64197;SDS011;50512;53.666;9.700;2022-10-13T12:34:44;22.83;;;12.43;;
64197;SDS011;50512;53.666;9.700;2022-10-13T12:37:10;25.58;;;11.32;;
64197;SDS011;50512;53.666;9.700;2022-10-13T12:39:42;22.35;;;11.88;;
64197;SDS011;50512;53.666;9.700;2022-10-13T12:42:09;23.80;;;12.52;;
64197;SDS011;50512;53.666;9.700;2022-10-13T12:44:39;22.23;;;13.18;;
64197;SDS011;50512;53.666;9.700;2022-10-13T12:47:05;28.98;;;12.98;;
64197;SDS011;50512;53.666;9.700;2022-10-13T12:50:19;29.98;;;12.93;;
64197;SDS011;50512;53.666;9.700;2022-10-13T12:52:45;28.02;;;13.27;;
64197;SDS011;50512;53.666;9.700;2022-10-13T12:55:11;35.90;;;15.02;;
64197;SDS011;50512;53.666;9.700;2022-10-13T12:57:40;30.20;;;13.95;;
64197;SDS011;50512;53.666;9.700;2022-10-13T13:00:20;26.50;;;13.88;;
64197;SDS011;50512;53.666;9.700;2022-10-13T13:02:50;29.35;;;13.52;;
64197;SDS011;50512;53.666;9.700;2022-10-13T13:05:29;28.23;;;14.95;;
64197;SDS011;50512;53.666;9.700;2022-10-13T13:07:56;28.73;;;13.85;;
64197;SDS011;50512;53.666;9.700;2022-10-13T13:10:21;28.50;;;13.65;;
64197;SDS011;50512;53.666;9.700;2022-10-13T13:12:47;29.67;;;15.38;;
64197;SDS011;50512;53.666;9.700;2022-10-13T13:15:29;27.42;;;14.82;;
64197;SDS011;50512;53.666;9.700;2022-10-13T13:18:21;30.90;;;14.55;;
64197;SDS011;50512;53.666;9.700;2022-10-13T13:20:56;29.77;;;14.38;;
64197;SDS011;50512;53.666;9.700;2022-10-13T13:23:22;28.02;;;14.30;;
64197;SDS011;50512;53.666;9.700;2022-10-13T13:25:57;29.52;;;15.88;;
64197;SDS011;50512;53.666;9.700;2022-10-13T13:28:27;29.65;;;14.10;;
64197;SDS011;50512;53.666;9.700;2022-10-13T13:30:53;27.02;;;13.88;;
64197;SDS011;50512;53.666;9.700;2022-10-13T13:33:20;31.65;;;14.88;;
64197;SDS011;50512;53.666;9.700;2022-10-13T13:35:45;35.97;;;16.75;;
64197;SDS011;50512;53.666;9.700;2022-10-13T13:38:11;27.50;;;14.60;;
64197;SDS011;50512;53.666;9.700;2022-10-13T13:40:36;23.92;;;13.55;;
64197;SDS011;50512;53.666;9.700;2022-10-13T13:43:02;32.42;;;15.55;;
64197;SDS011;50512;53.666;9.700;2022-10-13T13:45:27;29.10;;;13.55;;
64197;SDS011;50512;53.666;9.700;2022-10-13T13:47:53;30.30;;;15.20;;
64197;SDS011;50512;53.666;9.700;2022-10-13T13:50:21;33.58;;;15.00;;
64197;SDS011;50512;53.666;9.700;2022-10-13T13:52:48;31.15;;;15.32;;
64197;SDS011;50512;53.666;9.700;2022-10-13T13:55:13;39.20;;;16.90;;
64197;SDS011;50512;53.666;9.700;2022-10-13T13:57:40;41.28;;;19.50;;
64197;SDS011;50512;53.666;9.700;2022-10-13T14:00:06;40.08;;;17.85;;
64197;SDS011;50512;53.666;9.700;2022-10-13T14:02:32;36.42;;;15.73;;
64197;SDS011;50512;53.666;9.700;2022-10-13T14:04:57;35.78;;;16.48;;
64197;SDS011;50512;53.666;9.700;2022-10-13T14:07:24;31.60;;;14.38;;
64197;SDS011;50512;53.666;9.700;2022-10-13T14:09:49;31.77;;;15.57;;
64197;SDS011;50512;53.666;9.700;2022-10-13T14:12:15;29.70;;;14.20;;
64197;SDS011;50512;53.666;9.700;2022-10-13T14:14:40;34.38;;;13.90;;
64197;SDS011;50512;53.666;9.700;2022-10-13T14:17:06;33.55;;;14.77;;
64197;SDS011;50512;53.666;9.700;2022-10-13T14:19:31;32.13;;;14.85;;
64197;SDS011;50512;53.666;9.700;2022-10-13T14:21:57;30.88;;;14.00;;
64197;SDS011;50512;53.666;9.700;2022-10-13T14:24:24;28.48;;;13.48;;
64197;SDS011;50512;53.666;9.700;2022-10-13T14:26:50;30.02;;;13.88;;
64197;SDS011;50512;53.666;9.700;2022-10-13T14:29:15;27.10;;;13.77;;
64197;SDS011;50512;53.666;9.700;2022-10-13T14:31:41;29.40;;;13.82;;
64197;SDS011;50512;53.666;9.700;2022-10-13T14:34:06;29.95;;;14.88;;
64197;SDS011;50512;53.666;9.700;2022-10-13T14:36:32;27.73;;;14.00;;
64197;SDS011;50512;53.666;9.700;2022-10-13T14:38:57;35.15;;;15.15;;
64197;SDS011;50512;53.666;9.700;2022-10-13T14:41:24;31.35;;;14.00;;
64197;SDS011;50512;53.666;9.700;2022-10-13T14:43:50;29.02;;;13.63;;
64197;SDS011;50512;53.666;9.700;2022-10-13T14:46:16;32.08;;;14.10;;
64197;SDS011;50512;53.666;9.700;2022-10-13T14:48:42;26.83;;;13.88;;
64197;SDS011;50512;53.666;9.700;2022-10-13T14:51:08;29.23;;;14.57;;
64197;SDS011;50512;53.666;9.700;2022-10-13T14:53:35;35.60;;;15.32;;
64197;SDS011;50512;53.666;9.700;2022-10-13T14:56:02;32.80;;;15.48;;
64197;SDS011;50512;53.666;9.700;2022-10-13T14:58:37;33.60;;;15.75;;
64197;SDS011;50512;53.666;9.700;2022-10-13T15:01:03;27.30;;;15.30;;
64197;SDS011;50512;53.666;9.700;2022-10-13T15:03:28;28.60;;;14.90;;
64197;SDS011;50512;53.666;9.700;2022-10-13T15:05:54;28.75;;;14.90;;
64197;SDS011;50512;53.666;9.700;2022-10-13T15:08:19;30.52;;;15.32;;
64197;SDS011;50512;53.666;9.700;2022-10-13T15:10:44;30.60;;;14.80;;
64197;SDS011;50512;53.666;9.700;2022-10-13T15:13:10;29.77;;;14.10;;